createdAt,value
2024-05-09T00:00:10.501Z,0.00
2024-05-09T00:03:07.520Z,0.00
2024-05-09T00:06:07.025Z,0.00
2024-05-09T00:09:06.914Z,0.00
2024-05-09T00:12:07.026Z,0.00
2024-05-09T00:15:06.850Z,0.00
2024-05-09T00:18:07.893Z,0.00
2024-05-09T00:21:06.836Z,0.00
2024-05-09T00:24:06.744Z,0.00
2024-05-09T00:27:06.916Z,0.00
2024-05-09T00:30:07.269Z,0.00
2024-05-09T00:33:08.201Z,0.00
2024-05-09T00:36:06.625Z,0.00
2024-05-09T00:39:06.623Z,0.00
2024-05-09T00:42:06.575Z,0.00
2024-05-09T00:45:06.552Z,0.00
2024-05-09T00:48:07.791Z,0.00
2024-05-09T00:51:06.621Z,0.00
2024-05-09T00:54:06.465Z,0.00
2024-05-09T00:57:06.485Z,0.00
2024-05-09T01:00:12.101Z,0.00
2024-05-09T01:03:06.674Z,0.00
2024-05-09T01:06:06.426Z,0.00
2024-05-09T01:09:12.324Z,0.00
2024-05-09T01:12:06.365Z,0.00
2024-05-09T01:15:06.234Z,0.00
2024-05-09T01:18:08.175Z,0.00
2024-05-09T01:21:06.226Z,0.00
2024-05-09T01:24:06.177Z,0.00
2024-05-09T01:27:06.156Z,0.00
2024-05-09T01:30:09.531Z,0.00
2024-05-09T01:33:08.068Z,0.00
2024-05-09T01:36:06.034Z,0.00
2024-05-09T01:39:06.029Z,0.00
2024-05-09T01:42:05.985Z,0.00
2024-05-09T01:45:05.957Z,0.00
2024-05-09T01:48:06.169Z,0.00
2024-05-09T01:51:05.991Z,0.00
2024-05-09T01:54:05.870Z,0.00
2024-05-09T01:57:05.868Z,0.00
2024-05-09T02:00:07.719Z,0.00
2024-05-09T02:03:05.992Z,0.00
2024-05-09T02:06:05.823Z,0.00
2024-05-09T02:09:05.719Z,0.00
2024-05-09T02:12:05.914Z,0.00
2024-05-09T02:15:05.662Z,0.00
2024-05-09T02:18:05.839Z,0.00
2024-05-09T02:21:05.636Z,0.00
2024-05-09T02:24:05.598Z,0.00
2024-05-09T02:27:05.559Z,0.00
2024-05-09T02:30:12.254Z,0.00
2024-05-09T02:33:05.736Z,0.00
2024-05-09T02:36:05.470Z,0.00
2024-05-09T02:39:05.430Z,0.00
2024-05-09T02:42:05.330Z,1.00
2024-05-09T02:45:05.324Z,1.00
2024-05-09T02:48:05.505Z,1.00
2024-05-09T02:51:05.395Z,0.00
2024-05-09T02:54:05.243Z,1.00
2024-05-09T02:57:05.190Z,2.00
2024-05-09T03:00:07.664Z,1.00
2024-05-09T03:03:05.286Z,10.00
2024-05-09T03:06:05.117Z,6.00
2024-05-09T03:09:05.090Z,8.00
2024-05-09T03:12:05.131Z,11.00
2024-05-09T03:15:05.022Z,15.00
2024-05-09T03:18:05.312Z,28.00
2024-05-09T03:21:05.074Z,41.00
2024-05-09T03:24:04.941Z,56.00
2024-05-09T03:27:04.902Z,74.00
2024-05-09T03:30:07.337Z,92.00
2024-05-09T03:33:05.049Z,104.00
2024-05-09T03:36:06.812Z,124.00
2024-05-09T03:39:04.795Z,140.00
2024-05-09T03:42:04.750Z,159.00
2024-05-09T03:45:04.739Z,185.00
2024-05-09T03:48:04.818Z,193.00
2024-05-09T03:51:04.833Z,197.00
2024-05-09T03:54:04.737Z,229.00
2024-05-09T03:57:04.599Z,257.00
2024-05-09T04:00:07.417Z,280.00
2024-05-09T04:03:05.503Z,303.00
2024-05-09T04:06:04.552Z,334.00
2024-05-09T04:09:04.494Z,355.00
2024-05-09T04:12:04.673Z,377.00
2024-05-09T04:15:04.495Z,401.00
2024-05-09T04:18:04.538Z,426.00
2024-05-09T04:21:04.572Z,446.00
2024-05-09T04:24:04.357Z,462.00
2024-05-09T04:27:04.311Z,476.00
2024-05-09T04:30:06.161Z,491.00
2024-05-09T04:33:04.429Z,526.00
2024-05-09T04:36:04.235Z,547.00
2024-05-09T04:39:04.202Z,570.00
2024-05-09T04:42:04.156Z,596.00
2024-05-09T04:45:04.143Z,630.00
2024-05-09T04:48:04.373Z,670.00
2024-05-09T04:51:04.250Z,689.00
2024-05-09T04:54:04.510Z,687.00
2024-05-09T04:57:04.010Z,692.00
2024-05-09T05:00:07.245Z,708.00
2024-05-09T05:03:04.095Z,718.00
2024-05-09T05:06:04.083Z,726.00
2024-05-09T05:09:03.889Z,725.00
2024-05-09T05:12:04.005Z,747.00
2024-05-09T05:15:03.873Z,737.00
2024-05-09T05:18:03.976Z,706.00
2024-05-09T05:21:03.837Z,821.00
2024-05-09T05:24:03.750Z,855.00
2024-05-09T05:27:03.724Z,781.00
2024-05-09T05:30:07.339Z,738.00
2024-05-09T05:33:03.716Z,837.00
2024-05-09T05:36:03.635Z,780.00
2024-05-09T05:39:03.603Z,834.00
2024-05-09T05:42:03.556Z,960.00
2024-05-09T05:45:05.159Z,937.00
2024-05-09T05:48:03.774Z,922.00
2024-05-09T05:51:04.622Z,711.00
2024-05-09T05:54:03.441Z,817.00
2024-05-09T05:57:03.414Z,820.00
2024-05-09T06:00:05.527Z,909.00
2024-05-09T06:03:03.444Z,887.00
2024-05-09T06:06:03.406Z,921.00
2024-05-09T06:09:03.301Z,1080.00
2024-05-09T06:12:03.504Z,950.00
2024-05-09T06:15:03.228Z,1082.00
2024-05-09T06:18:03.417Z,1031.00
2024-05-09T06:21:03.253Z,918.00
2024-05-09T06:24:06.225Z,1078.00
2024-05-09T06:27:03.114Z,1044.00
2024-05-09T06:30:03.789Z,1058.00
2024-05-09T06:33:03.350Z,1054.00
2024-05-09T06:36:03.038Z,1116.00
2024-05-09T06:39:02.994Z,1030.00
2024-05-09T06:42:02.975Z,1009.00
2024-05-09T06:45:02.947Z,1215.00
2024-05-09T06:48:03.091Z,1016.00
2024-05-09T06:51:02.912Z,1003.00
2024-05-09T06:54:02.836Z,1059.00
2024-05-09T06:57:02.827Z,1095.00
2024-05-09T07:00:02.975Z,1128.00
2024-05-09T07:03:05.744Z,1275.00
2024-05-09T07:06:02.967Z,1042.00
2024-05-09T07:09:02.695Z,1204.00
2024-05-09T07:12:02.789Z,1266.00
2024-05-09T07:15:10.879Z,1193.00
2024-05-09T07:18:02.990Z,1173.00
2024-05-09T07:21:02.618Z,1224.00
2024-05-09T07:24:02.539Z,1249.00
2024-05-09T07:27:02.515Z,1224.00
2024-05-09T07:30:05.385Z,1232.00
2024-05-09T07:33:03.305Z,1244.00
2024-05-09T07:36:03.273Z,1221.00
2024-05-09T07:39:02.382Z,1264.00
2024-05-09T07:42:02.382Z,1249.00
2024-05-09T07:45:21.209Z,1268.00
2024-05-09T07:53:07.630Z,1394.00
2024-05-09T07:54:02.842Z,1079.00
2024-05-09T07:57:02.420Z,1229.00
2024-05-09T08:00:02.495Z,1292.00
2024-05-09T08:03:02.228Z,1284.00
2024-05-09T08:06:02.133Z,1281.00
2024-05-09T08:09:07.673Z,1320.00
2024-05-09T08:12:02.076Z,1284.00
2024-05-09T08:15:02.038Z,1305.00
2024-05-09T08:18:02.247Z,1293.00
2024-05-09T08:21:01.995Z,1303.00
2024-05-09T08:24:01.938Z,1315.00
2024-05-09T08:27:01.927Z,1327.00
2024-05-09T08:30:01.930Z,1343.00
2024-05-09T08:33:01.909Z,1373.00
2024-05-09T08:36:01.847Z,1315.00
2024-05-09T08:39:01.773Z,1327.00
2024-05-09T08:42:01.770Z,1371.00
2024-05-09T08:45:01.808Z,1383.00
2024-05-09T08:48:01.852Z,1377.00
2024-05-09T08:51:01.700Z,1384.00
2024-05-09T08:54:01.648Z,1370.00
2024-05-09T08:57:01.642Z,1390.00
2024-05-09T09:00:01.575Z,1393.00
2024-05-09T09:03:01.666Z,1402.00
2024-05-09T09:06:01.559Z,1418.00
2024-05-09T09:09:01.575Z,1450.00
2024-05-09T09:12:01.619Z,1441.00
2024-05-09T09:15:01.442Z,1425.00
2024-05-09T09:18:01.733Z,1457.00
2024-05-09T09:21:01.428Z,1482.00
2024-05-09T09:24:01.330Z,1488.00
2024-05-09T09:27:01.307Z,1460.00
2024-05-09T09:30:01.320Z,1479.00
2024-05-09T09:33:01.373Z,1456.00
2024-05-09T09:36:01.245Z,1487.00
2024-05-09T09:39:01.223Z,1518.00
2024-05-09T09:42:01.206Z,1518.00
2024-05-09T09:45:05.102Z,1536.00
2024-05-09T09:48:01.220Z,1535.00
2024-05-09T09:51:01.063Z,1546.00
2024-05-09T09:54:01.038Z,1541.00
2024-05-09T09:57:01.004Z,1562.00
2024-05-09T10:00:00.981Z,1553.00
2024-05-09T10:03:01.588Z,1588.00
2024-05-09T10:06:00.989Z,1598.00
2024-05-09T10:09:00.905Z,1603.00
2024-05-09T10:12:01.169Z,1627.00
2024-05-09T10:15:01.194Z,1630.00
2024-05-09T10:18:00.869Z,1681.00
2024-05-09T10:21:00.761Z,1657.00
2024-05-09T10:24:00.728Z,1684.00
2024-05-09T10:27:00.708Z,1719.00
2024-05-09T10:30:00.675Z,1749.00
2024-05-09T10:33:03.743Z,1775.00
2024-05-09T10:36:00.631Z,1731.00
2024-05-09T10:39:00.644Z,1768.00
2024-05-09T10:42:00.579Z,1774.00
2024-05-09T10:45:00.643Z,1735.00
2024-05-09T10:48:00.756Z,1753.00
2024-05-09T10:51:00.459Z,1726.00
2024-05-09T10:54:00.459Z,1776.00
2024-05-09T10:57:00.457Z,1791.00
2024-05-09T11:00:00.354Z,1804.00
2024-05-09T11:03:00.444Z,1816.00
2024-05-09T11:06:00.312Z,1830.00
2024-05-09T11:09:00.325Z,1846.00
2024-05-09T11:12:00.413Z,1862.00
2024-05-09T11:15:00.279Z,1861.00
2024-05-09T11:18:00.324Z,1853.00
2024-05-09T11:21:00.192Z,1906.00
2024-05-09T11:24:00.138Z,1902.00
2024-05-09T11:27:00.188Z,1902.00
2024-05-09T11:30:00.267Z,1893.00
2024-05-09T11:33:00.211Z,1909.00
2024-05-09T11:36:00.026Z,1897.00
2024-05-09T11:38:59.980Z,1903.00
2024-05-09T11:41:59.996Z,1918.00
2024-05-09T11:44:59.951Z,1920.00
2024-05-09T11:48:00.032Z,1933.00
2024-05-09T11:50:59.890Z,1950.00
2024-05-09T11:53:59.904Z,1914.00
2024-05-09T11:56:59.856Z,1940.00
2024-05-09T11:59:59.830Z,1962.00
2024-05-09T12:02:59.883Z,1969.00
2024-05-09T12:05:59.851Z,1951.00
2024-05-09T12:08:59.781Z,1969.00
2024-05-09T12:11:59.719Z,1978.00
2024-05-09T12:14:59.721Z,1991.00
2024-05-09T12:18:02.740Z,2016.00
2024-05-09T12:20:59.640Z,2047.00
2024-05-09T12:23:59.656Z,2062.00
2024-05-09T12:26:59.531Z,2076.00
2024-05-09T12:29:59.510Z,2098.00
2024-05-09T12:32:59.588Z,2113.00
2024-05-09T12:35:59.425Z,2127.00
2024-05-09T12:38:59.376Z,2143.00
2024-05-09T12:41:59.438Z,2147.00
2024-05-09T12:44:59.299Z,2158.00
2024-05-09T12:47:59.612Z,2185.00
2024-05-09T12:50:59.500Z,2192.00
2024-05-09T12:53:59.242Z,2230.00
2024-05-09T12:56:59.206Z,2271.00
2024-05-09T12:59:59.173Z,2287.00
2024-05-09T13:02:59.210Z,2349.00
2024-05-09T13:05:59.152Z,2322.00
2024-05-09T13:08:59.063Z,2314.00
2024-05-09T13:11:59.089Z,2325.00
2024-05-09T13:14:59.021Z,2317.00
2024-05-09T13:18:02.252Z,2322.00
2024-05-09T13:21:07.978Z,2337.00
2024-05-09T13:24:00.549Z,2352.00
2024-05-09T13:26:58.928Z,2395.00
2024-05-09T13:29:58.856Z,2454.00
2024-05-09T13:32:58.889Z,2472.00
2024-05-09T13:35:58.929Z,2576.00
2024-05-09T13:38:58.752Z,2484.00
2024-05-09T13:41:58.799Z,2512.00
2024-05-09T13:44:58.815Z,2510.00
2024-05-09T13:47:58.871Z,2538.00
2024-05-09T13:50:58.746Z,2585.00
2024-05-09T13:53:58.663Z,2604.00
2024-05-09T13:56:58.625Z,2662.00
2024-05-09T13:59:58.627Z,2676.00
2024-05-09T14:02:58.672Z,2746.00
2024-05-09T14:05:58.728Z,2835.00
2024-05-09T14:08:58.450Z,2850.00
2024-05-09T14:11:58.538Z,2925.00
2024-05-09T14:14:58.398Z,3026.00
2024-05-09T14:17:58.504Z,3056.00
2024-05-09T14:20:58.383Z,3128.00
2024-05-09T14:23:58.372Z,3219.00
2024-05-09T14:27:15.462Z,3070.00
2024-05-09T14:29:58.236Z,3114.00
2024-05-09T14:32:58.411Z,3235.00
2024-05-09T14:35:58.239Z,3154.00
2024-05-09T14:38:58.181Z,3112.00
2024-05-09T14:41:58.233Z,3048.00
2024-05-09T14:44:58.091Z,2997.00
2024-05-09T14:47:58.186Z,1908.00
2024-05-09T14:50:58.061Z,79745.00
2024-05-09T14:53:58.022Z,70344.00
2024-05-09T14:56:58.027Z,27259.00
2024-05-09T14:59:57.990Z,5741.00
2024-05-09T15:02:58.013Z,6217.00
2024-05-09T15:05:57.895Z,74310.00
2024-05-09T15:08:57.884Z,63174.00
2024-05-09T15:11:58.168Z,14979.00
2024-05-09T15:14:57.797Z,6389.00
2024-05-09T15:17:57.976Z,6952.00
2024-05-09T15:20:57.892Z,6471.00
2024-05-09T15:23:57.767Z,3412.00
2024-05-09T15:26:57.703Z,4312.00
2024-05-09T15:29:57.654Z,6245.00
2024-05-09T15:32:57.879Z,4818.00
2024-05-09T15:35:57.632Z,3040.00
2024-05-09T15:38:57.590Z,4537.00
2024-05-09T15:41:57.614Z,3545.00
2024-05-09T15:44:57.514Z,3110.00
2024-05-09T15:47:57.898Z,3745.00
2024-05-09T15:50:57.582Z,4638.00
2024-05-09T15:53:57.472Z,2897.00
2024-05-09T15:56:57.439Z,5323.00
2024-05-09T15:59:57.468Z,3178.00
2024-05-09T16:02:57.448Z,3939.00
2024-05-09T16:05:57.450Z,3715.00
2024-05-09T16:08:57.343Z,3041.00
2024-05-09T16:11:57.380Z,3452.00
2024-05-09T16:14:57.264Z,4414.00
2024-05-09T16:17:57.462Z,4892.00
2024-05-09T16:20:57.205Z,4437.00
2024-05-09T16:23:57.167Z,7077.00
2024-05-09T16:26:57.177Z,4142.00
2024-05-09T16:29:57.190Z,3566.00
2024-05-09T16:32:57.183Z,3372.00
2024-05-09T16:35:57.089Z,3355.00
2024-05-09T16:38:57.078Z,3131.00
2024-05-09T16:41:57.070Z,3010.00
2024-05-09T16:44:56.989Z,2878.00
2024-05-09T16:47:57.062Z,2563.00
2024-05-09T16:50:56.920Z,2854.00
2024-05-09T16:53:56.859Z,2842.00
2024-05-09T16:56:56.848Z,2515.00
2024-05-09T16:59:56.797Z,3163.00
2024-05-09T17:02:56.855Z,2641.00
2024-05-09T17:05:56.915Z,2410.00
2024-05-09T17:09:01.938Z,2134.00
2024-05-09T17:11:56.696Z,2060.00
2024-05-09T17:14:56.609Z,2158.00
2024-05-09T17:17:56.733Z,1961.00
2024-05-09T17:20:56.552Z,1849.00
2024-05-09T17:23:56.591Z,1713.00
2024-05-09T17:26:56.518Z,1583.00
2024-05-09T17:29:56.457Z,1487.00
2024-05-09T17:32:56.496Z,1387.00
2024-05-09T17:35:56.421Z,1343.00
2024-05-09T17:38:56.445Z,1320.00
2024-05-09T17:41:56.365Z,1294.00
2024-05-09T17:44:56.319Z,1243.00
2024-05-09T17:47:56.483Z,1172.00
2024-05-09T17:50:56.278Z,1074.00
2024-05-09T17:53:56.235Z,1017.00
2024-05-09T17:56:56.218Z,976.00
2024-05-09T17:59:56.175Z,932.00
2024-05-09T18:02:56.160Z,860.00
2024-05-09T18:05:56.314Z,797.00
2024-05-09T18:08:56.071Z,727.00
2024-05-09T18:11:56.095Z,662.00
2024-05-09T18:14:56.018Z,615.00
2024-05-09T18:17:56.164Z,565.00
2024-05-09T18:20:56.045Z,513.00
2024-05-09T18:23:58.127Z,466.00
2024-05-09T18:26:55.927Z,414.00
2024-05-09T18:29:55.859Z,360.00
2024-05-09T18:32:55.991Z,303.00
2024-05-09T18:35:55.808Z,246.00
2024-05-09T18:38:55.792Z,205.00
2024-05-09T18:41:55.758Z,165.00
2024-05-09T18:44:55.739Z,123.00
2024-05-09T18:47:55.912Z,88.00
2024-05-09T18:50:55.688Z,66.00
2024-05-09T18:53:55.627Z,54.00
2024-05-09T18:56:55.604Z,42.00
2024-05-09T18:59:55.567Z,33.00
2024-05-09T19:02:55.891Z,23.00
2024-05-09T19:05:55.676Z,18.00
2024-05-09T19:08:55.566Z,10.00
2024-05-09T19:11:55.470Z,8.00
2024-05-09T19:14:55.414Z,5.00
2024-05-09T19:17:55.550Z,3.00
2024-05-09T19:20:55.355Z,2.00
2024-05-09T19:23:55.498Z,2.00
2024-05-09T19:26:55.402Z,1.00
2024-05-09T19:29:57.191Z,1.00
2024-05-09T19:32:55.378Z,0.00
2024-05-09T19:35:55.287Z,0.00
2024-05-09T19:38:55.292Z,0.00
2024-05-09T19:41:55.198Z,0.00
2024-05-09T19:44:55.185Z,0.00
2024-05-09T19:47:55.388Z,0.00
2024-05-09T19:50:55.300Z,0.00
2024-05-09T19:53:55.092Z,0.00
2024-05-09T19:56:55.052Z,0.00
2024-05-09T19:59:55.017Z,0.00
2024-05-09T20:02:55.146Z,0.00
2024-05-09T20:05:55.174Z,0.00
2024-05-09T20:08:55.007Z,0.00
2024-05-09T20:11:55.013Z,0.00
2024-05-09T20:14:54.925Z,0.00
2024-05-09T20:17:55.289Z,0.00
2024-05-09T20:20:54.978Z,0.00
2024-05-09T20:23:54.792Z,0.00
2024-05-09T20:26:54.765Z,0.00
2024-05-09T20:29:54.702Z,0.00
2024-05-09T20:32:54.818Z,0.00
2024-05-09T20:35:54.655Z,0.00
2024-05-09T20:38:54.634Z,0.00
2024-05-09T20:41:54.597Z,0.00
2024-05-09T20:44:54.557Z,0.00
2024-05-09T20:47:54.664Z,0.00
2024-05-09T20:50:54.570Z,0.00
2024-05-09T20:53:54.468Z,0.00
2024-05-09T20:56:54.498Z,0.00
2024-05-09T20:59:54.413Z,0.00
2024-05-09T21:02:54.411Z,0.00
2024-05-09T21:05:54.442Z,0.00
2024-05-09T21:08:54.315Z,0.00
2024-05-09T21:11:54.318Z,0.00
2024-05-09T21:14:54.253Z,0.00
2024-05-09T21:17:54.348Z,0.00
2024-05-09T21:20:54.219Z,0.00
2024-05-09T21:23:54.185Z,0.00
2024-05-09T21:26:54.142Z,0.00
2024-05-09T21:29:54.103Z,0.00
2024-05-09T21:32:54.207Z,0.00
2024-05-09T21:35:54.065Z,0.00
2024-05-09T21:38:54.030Z,0.00
2024-05-09T21:41:53.998Z,0.00
2024-05-09T21:44:53.970Z,0.00
2024-05-09T21:47:54.109Z,0.00
2024-05-09T21:50:53.912Z,0.00
2024-05-09T21:53:53.862Z,0.00
2024-05-09T21:56:53.846Z,0.00
2024-05-09T21:59:53.816Z,0.00
2024-05-09T22:02:53.839Z,0.00
2024-05-09T22:05:53.766Z,0.00
2024-05-09T22:08:53.706Z,0.00
2024-05-09T22:11:54.483Z,0.00
2024-05-09T22:14:53.648Z,0.00
2024-05-09T22:17:53.908Z,0.00
2024-05-09T22:20:53.601Z,0.00
2024-05-09T22:23:53.575Z,0.00
2024-05-09T22:26:53.548Z,0.00
2024-05-09T22:29:53.478Z,0.00
2024-05-09T22:32:53.560Z,0.00
2024-05-09T22:35:53.441Z,0.00
2024-05-09T22:38:53.395Z,0.00
2024-05-09T22:41:53.365Z,0.00
2024-05-09T22:44:53.333Z,0.00
2024-05-09T22:47:53.438Z,0.00
2024-05-09T22:50:53.364Z,0.00
2024-05-09T22:53:53.242Z,0.00
2024-05-09T22:56:53.234Z,0.00
2024-05-09T22:59:53.182Z,0.00
2024-05-09T23:02:53.194Z,0.00
2024-05-09T23:05:53.149Z,0.00
2024-05-09T23:08:53.103Z,0.00
2024-05-09T23:11:53.115Z,0.00
2024-05-09T23:14:53.037Z,0.00
2024-05-09T23:17:53.195Z,0.00
2024-05-09T23:20:52.970Z,0.00
2024-05-09T23:23:52.951Z,0.00
2024-05-09T23:26:52.918Z,0.00
2024-05-09T23:29:52.878Z,0.00
2024-05-09T23:32:53.041Z,0.00
2024-05-09T23:35:52.817Z,0.00
2024-05-09T23:38:52.821Z,0.00
2024-05-09T23:41:52.788Z,0.00
2024-05-09T23:44:52.723Z,0.00
2024-05-09T23:47:52.833Z,0.00
2024-05-09T23:50:52.675Z,0.00
2024-05-09T23:53:52.650Z,0.00
2024-05-09T23:56:52.637Z,0.00
2024-05-09T23:59:52.587Z,0.00
